Time;durP1;ratioP1;P1;durP2;ratioP2;P2;SDS_P1;SDS_P2;PMS_P1;PMS_P2;Temp;Humidity;BMP_temperature;BMP_pressure;BME280_temperature;BME280_humidity;BME280_pressure;Samples;Min_cycle;Max_cycle;Signal;HPM_P1;HPM_P2
2022/10/01 00:01:13;;;;;;;5.17;4.00;;;11.40;99.90;;;;;;5058423;28;21053;-78
2022/10/01 00:03:40;;;;;;;5.10;4.30;;;11.40;99.90;;;;;;5063327;28;20513;-77
2022/10/01 00:06:10;;;;;;;4.03;3.73;;;11.40;99.90;;;;;;5063243;28;20568;-77
2022/10/01 00:08:38;;;;;;;5.17;3.73;;;11.40;99.90;;;;;;5058275;28;20485;-77
2022/10/01 00:11:11;;;;;;;4.90;3.47;;;11.40;99.90;;;;;;5059334;28;20459;-77
2022/10/01 00:13:38;;;;;;;5.23;3.00;;;11.40;99.90;;;;;;5059746;28;20974;-77
2022/10/01 00:16:08;;;;;;;6.27;4.47;;;11.30;99.90;;;;;;5062745;28;20486;-77
2022/10/01 00:18:37;;;;;;;5.27;4.77;;;11.20;99.90;;;;;;5063116;28;20444;-77
2022/10/01 00:21:08;;;;;;;6.40;4.63;;;11.20;99.90;;;;;;5056305;28;20574;-77
2022/10/01 00:23:35;;;;;;;4.43;4.13;;;11.30;99.90;;;;;;5062527;28;20471;-77
2022/10/01 00:26:10;;;;;;;6.50;4.90;;;11.30;99.90;;;;;;5059941;28;20515;-77
2022/10/01 00:28:37;;;;;;;4.73;4.33;;;11.30;99.90;;;;;;5062016;28;20439;-77
2022/10/01 00:31:05;;;;;;;5.33;4.50;;;11.30;99.90;;;;;;5059644;28;20471;-77
2022/10/01 00:33:35;;;;;;;11.37;4.57;;;11.30;99.90;;;;;;5059738;28;20471;-77
2022/10/01 00:36:02;;;;;;;4.40;4.00;;;11.30;99.90;;;;;;5062315;28;20455;-78
2022/10/01 00:38:29;;;;;;;4.63;4.33;;;11.30;99.90;;;;;;5066168;28;21124;-77
2022/10/01 00:40:57;;;;;;;4.00;3.70;;;11.20;99.90;;;;;;5059600;28;20520;-78
2022/10/01 00:43:26;;;;;;;4.60;3.80;;;11.20;99.90;;;;;;5063592;28;20509;-77
2022/10/01 00:45:57;;;;;;;5.17;4.77;;;11.20;99.90;;;;;;5060766;28;20476;-78
2022/10/01 00:48:25;;;;;;;4.57;3.60;;;11.20;99.90;;;;;;5061155;28;20460;-77
2022/10/01 00:50:53;;;;;;;6.77;4.40;;;11.30;99.90;;;;;;5058826;28;20471;-77
2022/10/01 00:53:21;;;;;;;5.97;4.80;;;11.30;99.90;;;;;;5060982;28;20494;-77
2022/10/01 00:55:54;;;;;;;5.10;4.10;;;11.30;99.90;;;;;;5060454;28;20463;-77
2022/10/01 00:58:22;;;;;;;4.03;3.73;;;11.30;99.90;;;;;;5059599;28;20958;-77
2022/10/01 01:00:51;;;;;;;5.17;4.77;;;11.20;99.90;;;;;;5060511;28;20518;-78
2022/10/01 01:03:18;;;;;;;5.30;3.57;;;11.20;99.90;;;;;;5061591;28;20480;-77
2022/10/01 01:05:46;;;;;;;4.43;4.03;;;11.30;99.90;;;;;;5060108;28;20510;-77
2022/10/01 01:08:15;;;;;;;5.30;4.80;;;11.30;99.90;;;;;;5062349;28;20935;-77
2022/10/01 01:10:53;;;;;;;4.37;3.97;;;11.20;99.90;;;;;;5060314;28;20510;-77
2022/10/01 01:13:27;;;;;;;4.30;3.90;;;11.20;99.90;;;;;;5057579;28;20491;-78
2022/10/01 01:16:01;;;;;;;11.80;4.67;;;11.10;99.90;;;;;;5061467;28;20499;-77
2022/10/01 01:18:34;;;;;;;4.53;4.13;;;11.10;99.90;;;;;;5064991;28;20557;-77
2022/10/01 01:21:21;;;;;;;5.17;4.67;;;11.10;99.90;;;;;;5061417;28;20511;-77
2022/10/01 01:24:05;;;;;;;7.70;3.30;;;11.10;99.90;;;;;;5066078;28;20934;-77
2022/10/01 01:26:41;;;;;;;4.73;4.33;;;11.00;99.90;;;;;;5065400;28;20897;-77
2022/10/01 01:29:20;;;;;;;5.00;3.57;;;11.00;99.90;;;;;;5060764;28;20463;-77
2022/10/01 01:31:48;;;;;;;3.13;2.93;;;10.90;99.90;;;;;;5064593;28;20549;-77
2022/10/01 01:34:19;;;;;;;4.00;3.10;;;10.90;99.90;;;;;;5063197;28;20479;-77
2022/10/01 01:36:53;;;;;;;3.03;2.83;;;10.90;99.90;;;;;;5062755;28;20495;-77
2022/10/01 01:39:23;;;;;;;5.57;3.60;;;10.90;99.90;;;;;;5065974;28;20440;-77
2022/10/01 01:41:56;;;;;;;4.90;3.83;;;10.80;99.90;;;;;;5064025;28;20514;-78
2022/10/01 01:44:29;;;;;;;6.37;4.80;;;10.80;99.90;;;;;;5064520;28;20491;-77
2022/10/01 01:46:57;;;;;;;5.10;4.70;;;10.90;99.90;;;;;;5061754;28;20557;-77
2022/10/01 01:49:25;;;;;;;4.67;4.30;;;10.90;99.90;;;;;;5064976;28;20546;-78
2022/10/01 01:51:59;;;;;;;6.67;4.50;;;10.80;99.90;;;;;;5061281;28;20491;-77
2022/10/01 01:54:29;;;;;;;7.80;3.60;;;10.80;99.90;;;;;;5065122;28;20491;-77
2022/10/01 01:56:58;;;;;;;5.60;5.00;;;10.90;99.90;;;;;;5058063;28;20474;-78
2022/10/01 01:59:26;;;;;;;4.93;4.53;;;10.90;99.90;;;;;;5065211;28;20460;-78
2022/10/01 02:01:53;;;;;;;4.43;4.10;;;10.90;99.90;;;;;;5056444;28;20483;-78
2022/10/01 02:04:24;;;;;;;6.63;4.70;;;10.90;99.90;;;;;;5069884;28;20828;-77
2022/10/01 02:07:15;;;;;;;6.23;4.37;;;10.90;99.90;;;;;;5067237;28;20540;-77
2022/10/01 02:09:50;;;;;;;4.97;3.90;;;10.90;99.90;;;;;;5066365;28;20551;-77
2022/10/01 02:12:25;;;;;;;6.73;5.00;;;11.00;99.90;;;;;;5062326;28;20932;-77
2022/10/01 02:15:00;;;;;;;8.50;5.60;;;11.00;99.90;;;;;;5063157;28;20473;-78
2022/10/01 02:17:32;;;;;;;6.17;5.03;;;11.10;99.90;;;;;;5066324;28;20521;-77
2022/10/01 02:20:06;;;;;;;4.70;4.30;;;11.10;99.90;;;;;;5061879;28;20451;-77
2022/10/01 02:22:41;;;;;;;5.50;4.70;;;11.20;99.90;;;;;;5064185;28;20526;-77
2022/10/01 02:25:11;;;;;;;4.70;4.30;;;11.10;99.90;;;;;;5063422;28;20954;-77
2022/10/01 02:27:43;;;;;;;5.90;4.43;;;11.10;99.90;;;;;;5064688;28;20499;-77
2022/10/01 02:30:12;;;;;;;5.73;4.53;;;11.10;99.90;;;;;;5059384;28;20455;-77
2022/10/01 02:32:42;;;;;;;5.30;4.90;;;11.10;99.90;;;;;;5061614;28;20485;-77
2022/10/01 02:35:13;;;;;;;6.83;5.30;;;11.10;99.90;;;;;;5063251;28;20492;-77
2022/10/01 02:37:43;;;;;;;4.73;4.27;;;11.10;99.90;;;;;;5064252;28;20487;-77
2022/10/01 02:40:14;;;;;;;4.40;4.00;;;11.10;99.90;;;;;;5059024;28;20525;-77
2022/10/01 02:42:43;;;;;;;6.50;5.90;;;11.20;99.90;;;;;;5064345;28;20483;-77
2022/10/01 02:45:13;;;;;;;4.10;3.70;;;11.10;99.90;;;;;;5063345;28;20488;-77
2022/10/01 02:47:44;;;;;;;3.70;3.40;;;11.10;99.90;;;;;;5063245;28;20491;-77
2022/10/01 02:50:12;;;;;;;3.93;3.63;;;11.10;99.90;;;;;;5063218;28;20478;-77
2022/10/01 02:52:45;;;;;;;5.10;4.27;;;11.00;99.90;;;;;;5064937;28;20529;-77
2022/10/01 02:55:16;;;;;;;3.77;3.13;;;11.00;99.90;;;;;;5061756;28;20506;-77
2022/10/01 02:57:42;;;;;;;4.47;4.07;;;11.00;99.90;;;;;;5063748;28;20480;-77
2022/10/01 03:00:14;;;;;;;3.10;2.80;;;11.10;99.90;;;;;;5062717;28;20463;-77
2022/10/01 03:02:41;;;;;;;3.90;3.60;;;11.00;99.90;;;;;;5060763;28;20617;-77
2022/10/01 03:05:09;;;;;;;4.40;3.83;;;11.10;99.90;;;;;;5062406;28;20499;-77
2022/10/01 03:07:36;;;;;;;5.17;3.30;;;11.00;99.90;;;;;;5062494;28;21022;-77
2022/10/01 03:10:04;;;;;;;3.40;3.10;;;11.00;99.90;;;;;;5062251;28;20471;-77
2022/10/01 03:12:31;;;;;;;3.37;3.07;;;11.00;99.90;;;;;;5061501;28;20466;-77
2022/10/01 03:14:58;;;;;;;3.00;2.77;;;10.90;99.90;;;;;;5059888;28;20541;-77
2022/10/01 03:17:27;;;;;;;3.80;3.20;;;11.00;99.90;;;;;;5063862;28;20748;-77
2022/10/01 03:19:54;;;;;;;4.27;3.97;;;11.00;99.90;;;;;;5060536;28;20491;-77
2022/10/01 03:22:22;;;;;;;3.57;2.50;;;10.90;99.90;;;;;;5063169;28;20522;-77
2022/10/01 03:24:49;;;;;;;3.87;3.40;;;10.90;99.90;;;;;;5060681;28;20503;-77
2022/10/01 03:27:16;;;;;;;3.80;3.47;;;10.80;99.90;;;;;;5058816;28;21181;-78
2022/10/01 03:29:43;;;;;;;5.23;2.67;;;10.80;99.90;;;;;;5065287;28;20541;-77
2022/10/01 03:32:11;;;;;;;5.13;4.50;;;10.90;99.90;;;;;;5060739;28;20491;-77
2022/10/01 03:34:39;;;;;;;4.70;4.30;;;11.00;99.90;;;;;;5064118;28;20471;-77
2022/10/01 03:37:06;;;;;;;4.00;3.63;;;11.00;99.90;;;;;;5062839;28;21008;-77
2022/10/01 03:39:33;;;;;;;8.30;3.47;;;11.00;99.90;;;;;;5064373;28;20471;-77
2022/10/01 03:42:00;;;;;;;5.67;4.30;;;10.90;99.90;;;;;;5060315;28;20515;-77
2022/10/01 03:44:27;;;;;;;3.20;2.90;;;10.90;99.90;;;;;;5065099;28;20483;-77
2022/10/01 03:46:54;;;;;;;7.30;3.70;;;10.80;99.90;;;;;;5059349;28;20460;-77
2022/10/01 03:49:21;;;;;;;4.37;3.03;;;10.80;99.90;;;;;;5062164;28;20475;-77
2022/10/01 03:51:50;;;;;;;4.23;3.93;;;10.80;99.90;;;;;;5065921;28;20954;-77
2022/10/01 03:54:19;;;;;;;9.10;5.37;;;10.90;99.90;;;;;;5060120;28;20448;-77
2022/10/01 03:56:46;;;;;;;4.30;3.87;;;10.90;99.90;;;;;;5062351;28;20452;-77
2022/10/01 03:59:13;;;;;;;3.70;3.40;;;11.00;99.90;;;;;;5060118;28;20885;-77
2022/10/01 04:01:40;;;;;;;2.83;2.60;;;11.00;99.90;;;;;;5062323;28;20947;-77
2022/10/01 04:04:07;;;;;;;3.97;2.60;;;11.00;99.90;;;;;;5059302;28;20985;-77
2022/10/01 04:06:34;;;;;;;3.47;3.20;;;11.00;99.90;;;;;;5061952;28;20549;-77
2022/10/01 04:09:03;;;;;;;3.93;3.53;;;10.90;99.90;;;;;;5059688;28;20564;-77
2022/10/01 04:11:30;;;;;;;4.67;4.23;;;10.80;99.90;;;;;;5060558;28;20491;-77
2022/10/01 04:13:58;;;;;;;4.50;3.83;;;10.70;99.90;;;;;;5063011;28;20517;-77
2022/10/01 04:16:25;;;;;;;5.70;3.13;;;10.80;99.90;;;;;;5066069;28;20465;-77
2022/10/01 04:18:52;;;;;;;5.33;4.33;;;10.80;99.90;;;;;;5060262;28;20511;-77
2022/10/01 04:21:19;;;;;;;4.00;2.47;;;10.80;99.90;;;;;;5062547;28;20510;-77
2022/10/01 04:23:46;;;;;;;9.10;3.60;;;10.80;99.90;;;;;;5063131;28;20517;-77
2022/10/01 04:26:14;;;;;;;5.30;3.80;;;10.70;99.90;;;;;;5058780;28;21290;-76
2022/10/01 04:28:44;;;;;;;4.60;4.20;;;10.70;99.90;;;;;;5063260;28;20533;-77
2022/10/01 04:31:26;;;;;;;4.13;3.73;;;10.70;99.90;;;;;;5061833;28;20439;-77
2022/10/01 04:33:53;;;;;;;4.37;3.97;;;10.80;99.90;;;;;;5056037;28;20529;-77
2022/10/01 04:36:21;;;;;;;3.43;3.13;;;10.80;99.90;;;;;;5060677;28;20852;-77
2022/10/01 04:38:51;;;;;;;3.63;3.33;;;10.80;99.90;;;;;;5063482;28;21002;-77
2022/10/01 04:41:19;;;;;;;3.50;2.80;;;10.80;99.90;;;;;;5060258;28;20458;-77
2022/10/01 04:43:46;;;;;;;5.03;3.47;;;10.80;99.90;;;;;;5063242;28;20515;-77
2022/10/01 04:46:14;;;;;;;5.23;3.40;;;10.80;99.90;;;;;;5058585;28;20499;-77
2022/10/01 04:48:41;;;;;;;4.50;3.30;;;10.90;99.90;;;;;;5061406;28;20542;-77
2022/10/01 04:51:08;;;;;;;2.60;2.40;;;10.80;99.90;;;;;;5060151;28;21263;-77
2022/10/01 04:53:35;;;;;;;3.33;2.90;;;10.70;99.90;;;;;;5061025;28;20483;-77
2022/10/01 04:56:02;;;;;;;13.57;3.90;;;10.70;99.90;;;;;;5058841;28;20463;-77
2022/10/01 04:58:31;;;;;;;3.17;2.87;;;10.80;99.90;;;;;;5061259;28;20455;-77
2022/10/01 05:00:58;;;;;;;2.87;2.67;;;10.80;99.90;;;;;;5056015;28;20824;-77
2022/10/01 05:03:25;;;;;;;3.50;3.20;;;10.70;99.90;;;;;;5061206;28;20570;-79
2022/10/01 05:05:52;;;;;;;2.87;2.20;;;10.70;99.90;;;;;;5062190;28;20514;-78
2022/10/01 05:08:19;;;;;;;3.60;3.30;;;10.70;99.90;;;;;;5061864;28;20452;-78
2022/10/01 05:10:46;;;;;;;2.93;2.73;;;10.70;99.90;;;;;;5059362;28;20459;-79
2022/10/01 05:13:13;;;;;;;2.70;2.50;;;10.70;99.90;;;;;;5051654;28;20484;-78
2022/10/01 05:15:42;;;;;;;4.60;3.70;;;10.80;99.90;;;;;;5062212;28;20533;-79
2022/10/01 05:18:08;;;;;;;3.83;3.43;;;10.70;99.90;;;;;;5058141;28;20463;-78
2022/10/01 05:20:36;;;;;;;4.00;3.50;;;10.80;99.90;;;;;;5061473;28;20848;-78
2022/10/01 05:23:03;;;;;;;2.60;2.40;;;10.80;99.90;;;;;;5061830;28;20483;-79
2022/10/01 05:25:30;;;;;;;4.23;3.83;;;10.80;99.90;;;;;;5058793;28;20783;-78
2022/10/01 05:28:03;;;;;;;4.47;3.10;;;10.90;99.90;;;;;;5063775;28;20459;-78
2022/10/01 05:30:31;;;;;;;3.03;2.83;;;10.90;99.90;;;;;;5062375;28;20829;-78
2022/10/01 05:33:02;;;;;;;5.27;3.00;;;11.00;99.90;;;;;;5072753;28;20464;-78
2022/10/01 05:35:29;;;;;;;4.30;3.10;;;11.00;99.90;;;;;;5067405;28;20533;-78
2022/10/01 05:37:58;;;;;;;3.47;3.17;;;11.00;99.90;;;;;;5055721;28;20639;-78
2022/10/01 05:40:26;;;;;;;5.10;3.83;;;11.00;99.90;;;;;;5060986;28;20513;-79
2022/10/01 05:42:54;;;;;;;3.77;3.03;;;11.00;99.90;;;;;;5062478;28;20484;-79
2022/10/01 05:45:22;;;;;;;4.53;2.97;;;11.00;99.90;;;;;;5062119;28;20448;-79
2022/10/01 05:47:55;;;;;;;2.57;2.37;;;11.00;99.90;;;;;;5053761;28;20972;-79
2022/10/01 05:50:24;;;;;;;3.70;2.90;;;11.00;99.90;;;;;;5064589;28;20464;-79
2022/10/01 05:52:52;;;;;;;3.10;2.80;;;11.00;99.90;;;;;;5050361;28;20464;-79
2022/10/01 05:55:19;;;;;;;3.10;2.90;;;11.20;99.90;;;;;;5066351;28;20577;-79
2022/10/01 05:57:54;;;;;;;2.93;2.50;;;11.20;99.90;;;;;;5062323;28;20522;-78
2022/10/01 06:00:21;;;;;;;3.30;3.10;;;11.20;99.90;;;;;;5057497;28;20948;-78
2022/10/01 06:02:51;;;;;;;4.70;3.30;;;11.30;99.90;;;;;;5063690;28;20576;-79
2022/10/01 06:05:18;;;;;;;5.33;4.90;;;11.40;99.90;;;;;;5063083;28;20528;-79
2022/10/01 06:07:46;;;;;;;3.80;3.50;;;11.70;99.90;;;;;;5065601;28;20931;-79
2022/10/01 06:10:13;;;;;;;6.83;4.50;;;11.90;99.90;;;;;;5061721;28;20623;-79
2022/10/01 06:12:42;;;;;;;6.27;5.30;;;12.00;99.90;;;;;;5066653;28;20506;-79
2022/10/01 06:15:09;;;;;;;3.90;3.60;;;12.20;99.90;;;;;;5065391;28;20779;-79
2022/10/01 06:17:42;;;;;;;3.87;3.47;;;12.30;99.90;;;;;;5060472;28;20484;-79
2022/10/01 06:20:11;;;;;;;4.93;4.43;;;12.30;99.90;;;;;;5064053;28;20451;-78
2022/10/01 06:22:38;;;;;;;3.10;2.90;;;12.40;99.90;;;;;;5063988;28;20484;-79
2022/10/01 06:25:08;;;;;;;21.57;16.00;;;12.40;99.90;;;;;;5062606;28;20468;-79
2022/10/01 06:27:35;;;;;;;27.23;21.67;;;12.40;99.90;;;;;;5066006;28;20541;-79
2022/10/01 06:30:03;;;;;;;61.20;44.23;;;12.50;99.90;;;;;;5054601;28;21177;-79
2022/10/01 06:32:30;;;;;;;32.47;24.60;;;12.50;99.90;;;;;;5062911;28;20485;-79
2022/10/01 06:34:57;;;;;;;62.73;45.27;;;12.50;99.90;;;;;;5058315;28;20469;-78
2022/10/01 06:37:24;;;;;;;128.50;94.07;;;12.60;99.90;;;;;;5051509;28;20560;-79
2022/10/01 06:39:51;;;;;;;111.60;84.67;;;12.80;99.90;;;;;;5063190;28;20924;-78
2022/10/01 06:42:21;;;;;;;27.63;21.30;;;12.80;99.90;;;;;;5061523;28;20969;-78
2022/10/01 06:44:47;;;;;;;22.87;19.20;;;13.00;99.90;;;;;;5064908;28;20504;-79
2022/10/01 06:47:14;;;;;;;8.70;7.13;;;13.00;99.90;;;;;;5055252;28;20466;-79
2022/10/01 06:49:41;;;;;;;11.17;10.17;;;13.10;99.90;;;;;;5059752;28;20964;-78
2022/10/01 06:54:54;;;;;;;4.43;4.03;;;13.30;99.90;;;;;;5059251;28;20467;-79
2022/10/01 06:57:22;;;;;;;9.20;7.73;;;13.30;99.90;;;;;;5062645;28;21011;-79
2022/10/01 06:59:50;;;;;;;3.73;3.30;;;13.40;99.90;;;;;;5062493;28;20610;-78
2022/10/01 07:02:27;;;;;;;12.13;10.60;;;13.40;99.90;;;;;;5062809;28;20497;-78
2022/10/01 07:04:55;;;;;;;9.57;8.67;;;13.40;99.90;;;;;;5062825;28;20493;-79
2022/10/01 07:07:22;;;;;;;5.10;4.80;;;13.40;99.90;;;;;;5060161;28;20470;-79
2022/10/01 07:09:49;;;;;;;11.53;10.30;;;13.30;99.90;;;;;;5053979;28;20503;-79
2022/10/01 07:12:19;;;;;;;4.73;4.50;;;13.30;99.90;;;;;;5049916;28;20993;-79
2022/10/01 07:14:48;;;;;;;5.83;5.43;;;13.20;99.90;;;;;;5062397;28;20489;-79
2022/10/01 07:17:14;;;;;;;3.40;3.10;;;13.40;99.90;;;;;;5058853;28;20875;-79
2022/10/01 07:19:41;;;;;;;5.00;4.60;;;13.30;99.90;;;;;;5055997;28;20493;-78
2022/10/01 07:22:09;;;;;;;3.50;2.70;;;13.20;99.90;;;;;;5050021;28;20495;-79
2022/10/01 07:24:36;;;;;;;3.73;3.40;;;13.20;99.90;;;;;;5052996;28;20564;-79
2022/10/01 07:27:03;;;;;;;3.67;3.37;;;13.10;99.90;;;;;;5056249;28;20911;-79
2022/10/01 07:29:30;;;;;;;5.80;4.90;;;13.10;99.90;;;;;;5053371;28;20547;-79
2022/10/01 07:32:00;;;;;;;3.40;3.20;;;13.10;99.90;;;;;;5050566;28;20490;-79
2022/10/01 07:34:29;;;;;;;2.90;2.70;;;13.10;99.90;;;;;;5050623;28;20504;-78
2022/10/01 07:36:57;;;;;;;2.50;2.30;;;13.20;99.90;;;;;;5050419;28;20466;-78
2022/10/01 07:39:24;;;;;;;3.10;2.83;;;13.60;99.90;;;;;;5048978;28;20502;-78
2022/10/01 07:41:51;;;;;;;3.57;2.97;;;14.00;99.90;;;;;;5047925;28;20478;-79
2022/10/01 07:44:19;;;;;;;3.27;3.07;;;14.10;99.90;;;;;;5049466;28;20580;-79
2022/10/01 07:46:47;;;;;;;5.33;3.90;;;14.50;99.90;;;;;;5051332;28;20494;-78
2022/10/01 07:49:16;;;;;;;6.30;4.10;;;14.80;99.90;;;;;;5047348;28;20471;-79
2022/10/01 07:51:43;;;;;;;2.60;2.40;;;15.00;99.90;;;;;;5052559;28;20463;-79
2022/10/01 07:54:10;;;;;;;4.07;2.80;;;15.00;99.90;;;;;;5050175;28;20551;-79
2022/10/01 07:56:37;;;;;;;2.60;2.40;;;14.90;99.90;;;;;;5052851;28;20498;-79
2022/10/01 07:59:06;;;;;;;5.20;4.00;;;14.90;99.90;;;;;;5048110;28;20460;-78
2022/10/01 08:01:35;;;;;;;8.00;5.80;;;14.90;99.90;;;;;;5049747;28;20547;-78
2022/10/01 08:05:16;;;;;;;7.97;5.23;;;14.70;99.90;;;;;;5051127;28;20486;-78
2022/10/01 08:06:52;;;;;;;5.10;4.77;;;14.50;99.90;;;;;;5050499;28;20475;-80
2022/10/01 08:09:19;;;;;;;8.07;7.37;;;14.40;99.90;;;;;;5048022;28;20493;-80
2022/10/01 08:11:47;;;;;;;6.93;5.90;;;14.40;99.90;;;;;;5050921;28;20532;-80
2022/10/01 08:14:15;;;;;;;8.93;6.60;;;14.20;99.90;;;;;;5048554;28;20462;-80
2022/10/01 08:16:41;;;;;;;5.30;4.80;;;14.30;99.90;;;;;;5061325;28;20474;-80
2022/10/01 08:19:08;;;;;;;4.83;4.43;;;14.50;99.90;;;;;;5057538;28;21049;-81
2022/10/01 08:21:36;;;;;;;6.70;5.87;;;14.50;99.90;;;;;;5054583;28;20502;-80
2022/10/01 08:24:04;;;;;;;5.20;4.80;;;14.60;99.90;;;;;;5050196;28;20613;-78
2022/10/01 08:26:32;;;;;;;5.80;5.20;;;14.50;99.90;;;;;;5056964;28;20519;-78
2022/10/01 08:28:59;;;;;;;6.37;5.57;;;14.50;99.90;;;;;;5057405;28;21113;-78
2022/10/01 08:31:26;;;;;;;5.57;4.87;;;14.40;99.90;;;;;;5057403;28;20488;-78
2022/10/01 08:33:54;;;;;;;5.03;4.53;;;14.40;99.90;;;;;;5057255;28;20485;-80
2022/10/01 08:36:21;;;;;;;5.20;4.67;;;14.20;99.90;;;;;;5059792;28;20458;-79
2022/10/01 08:38:48;;;;;;;4.93;4.40;;;14.10;99.90;;;;;;5054602;28;20879;-79
2022/10/01 08:41:33;;;;;;;5.30;4.90;;;14.00;99.90;;;;;;5058920;28;20915;-79
2022/10/01 08:44:02;;;;;;;6.10;5.53;;;14.10;99.90;;;;;;5052721;28;20492;-79
2022/10/01 08:46:34;;;;;;;5.60;5.10;;;14.30;99.90;;;;;;5055840;28;20490;-79
2022/10/01 08:49:08;;;;;;;5.67;5.17;;;14.40;99.90;;;;;;5054848;28;20456;-80
2022/10/01 08:51:39;;;;;;;5.67;4.77;;;14.40;99.90;;;;;;5057958;28;20468;-79
2022/10/01 08:54:17;;;;;;;6.40;4.63;;;14.60;99.90;;;;;;5048003;28;20485;-80
2022/10/01 08:56:47;;;;;;;5.67;5.20;;;14.80;99.90;;;;;;5054467;28;20523;-78
2022/10/01 08:59:23;;;;;;;4.60;4.20;;;14.90;99.90;;;;;;5063291;28;20471;-78
2022/10/01 09:01:50;;;;;;;9.43;5.03;;;15.20;99.90;;;;;;5056231;28;20494;-78
2022/10/01 09:04:17;;;;;;;5.60;4.20;;;15.20;99.90;;;;;;5057047;28;20518;-78
2022/10/01 09:06:46;;;;;;;3.80;3.50;;;15.30;99.90;;;;;;5055123;28;20500;-78
2022/10/01 09:09:32;;;;;;;4.17;3.77;;;15.50;99.90;;;;;;5052273;28;20548;-78
2022/10/01 09:12:14;;;;;;;3.97;3.60;;;15.80;99.90;;;;;;5052199;28;20544;-78
2022/10/01 09:15:05;;;;;;;4.33;3.77;;;16.10;99.90;;;;;;5052706;28;21270;-78
2022/10/01 09:17:45;;;;;;;4.07;3.70;;;15.80;99.90;;;;;;5046062;28;20468;-79
2022/10/01 09:20:21;;;;;;;3.47;2.87;;;16.00;99.90;;;;;;5056786;28;20498;-79
2022/10/01 09:22:56;;;;;;;4.03;3.10;;;16.20;99.90;;;;;;5052525;28;20490;-79
2022/10/01 09:25:25;;;;;;;4.03;3.63;;;15.80;99.90;;;;;;5054269;28;20517;-79
2022/10/01 09:28:00;;;;;;;3.20;3.00;;;16.00;99.90;;;;;;5054712;28;20499;-79
2022/10/01 09:30:29;;;;;;;3.60;3.30;;;16.10;99.90;;;;;;5058156;28;20574;-79
2022/10/01 09:33:03;;;;;;;2.90;2.70;;;16.20;99.90;;;;;;5055090;28;20501;-79
2022/10/01 09:35:42;;;;;;;3.60;3.30;;;16.40;99.90;;;;;;5050723;28;21035;-79
2022/10/01 09:38:17;;;;;;;3.67;3.33;;;16.30;99.90;;;;;;5062666;28;20451;-79
2022/10/01 09:40:53;;;;;;;4.07;3.70;;;16.40;99.90;;;;;;5059905;28;20534;-79
2022/10/01 09:43:23;;;;;;;3.40;3.20;;;16.50;99.90;;;;;;5062210;28;20487;-80
2022/10/01 09:45:51;;;;;;;5.80;3.10;;;16.40;99.90;;;;;;5055642;28;20549;-79
2022/10/01 09:48:28;;;;;;;4.00;2.50;;;16.40;99.90;;;;;;5060909;28;20987;-79
2022/10/01 09:50:58;;;;;;;4.07;3.67;;;16.40;99.90;;;;;;5057347;28;20452;-79
2022/10/01 09:53:32;;;;;;;3.53;3.23;;;16.30;99.90;;;;;;5050375;28;20491;-78
2022/10/01 09:56:05;;;;;;;5.30;3.50;;;16.40;99.90;;;;;;5055658;28;20550;-78
2022/10/01 09:58:37;;;;;;;4.10;3.80;;;16.50;99.90;;;;;;5062959;28;20481;-78
2022/10/01 10:01:11;;;;;;;4.07;3.77;;;16.60;99.90;;;;;;5053568;28;20496;-78
2022/10/01 10:03:38;;;;;;;3.37;3.17;;;16.40;99.90;;;;;;5052125;28;20576;-78
2022/10/01 10:06:06;;;;;;;3.97;3.67;;;16.40;99.90;;;;;;5050105;28;20498;-78
2022/10/01 10:08:36;;;;;;;5.50;5.10;;;16.70;99.90;;;;;;5058736;28;20539;-78
2022/10/01 10:11:06;;;;;;;3.83;3.53;;;16.80;99.90;;;;;;5063570;28;20497;-78
2022/10/01 10:13:37;;;;;;;3.60;3.30;;;16.90;99.90;;;;;;5058512;28;20495;-78
2022/10/01 10:16:15;;;;;;;3.93;3.67;;;16.40;99.90;;;;;;5057459;28;20927;-78
2022/10/01 10:18:42;;;;;;;3.27;3.07;;;16.60;99.90;;;;;;5064292;28;20504;-78
2022/10/01 10:21:15;;;;;;;3.87;3.57;;;16.50;99.90;;;;;;5065679;28;20494;-78
2022/10/01 10:23:50;;;;;;;3.53;3.33;;;16.60;99.90;;;;;;5054105;28;20546;-78
2022/10/01 10:26:23;;;;;;;3.00;2.70;;;16.30;99.90;;;;;;5060214;28;20541;-78
2022/10/01 10:28:51;;;;;;;5.70;3.20;;;16.30;99.90;;;;;;5060927;28;20473;-78
2022/10/01 10:31:21;;;;;;;3.83;3.53;;;16.50;99.90;;;;;;5057111;28;20989;-78
2022/10/01 10:33:51;;;;;;;3.83;3.53;;;16.50;99.90;;;;;;5054357;28;21206;-78
2022/10/01 10:36:19;;;;;;;4.37;4.00;;;16.50;99.90;;;;;;5059966;28;20521;-78
2022/10/01 10:38:49;;;;;;;4.30;3.70;;;16.60;99.90;;;;;;5054866;28;20463;-79
2022/10/01 10:41:24;;;;;;;6.07;5.37;;;16.70;99.90;;;;;;5059070;28;20809;-78
2022/10/01 10:43:56;;;;;;;3.67;3.30;;;16.80;99.90;;;;;;5060340;28;20512;-78
2022/10/01 10:46:30;;;;;;;3.60;3.30;;;16.70;99.90;;;;;;5056900;28;20467;-78
2022/10/01 10:49:03;;;;;;;4.23;3.50;;;16.90;99.90;;;;;;5062593;28;20548;-78
2022/10/01 10:51:43;;;;;;;3.80;3.50;;;16.90;99.90;;;;;;5063160;28;20458;-78
2022/10/01 10:54:19;;;;;;;4.07;3.80;;;17.00;99.90;;;;;;5062144;28;20485;-78
2022/10/01 10:56:52;;;;;;;3.40;2.87;;;17.10;99.90;;;;;;5063863;28;20490;-78
2022/10/01 10:59:21;;;;;;;4.00;3.70;;;16.90;99.90;;;;;;5062686;28;20547;-78
2022/10/01 11:01:49;;;;;;;3.07;2.80;;;16.90;99.90;;;;;;5048123;28;20571;-78
2022/10/01 11:04:27;;;;;;;3.90;3.57;;;17.00;99.90;;;;;;5044601;28;20480;-78
2022/10/01 11:06:56;;;;;;;4.60;4.20;;;17.00;99.90;;;;;;5049652;28;20957;-78
2022/10/01 11:09:27;;;;;;;3.63;3.33;;;17.00;99.90;;;;;;5052691;28;20548;-78
2022/10/01 11:12:05;;;;;;;4.00;3.60;;;16.90;99.90;;;;;;5056370;28;20488;-78
2022/10/01 11:14:48;;;;;;;3.00;2.80;;;16.80;99.90;;;;;;5055659;28;20474;-78
2022/10/01 11:17:38;;;;;;;3.50;2.77;;;16.90;99.90;;;;;;5050446;28;20529;-78
2022/10/01 11:20:32;;;;;;;2.53;2.43;;;16.70;99.90;;;;;;5059682;28;20490;-78
2022/10/01 11:23:17;;;;;;;2.63;2.43;;;16.80;99.90;;;;;;5067259;28;20465;-78
2022/10/01 11:25:57;;;;;;;3.17;2.97;;;16.70;99.90;;;;;;5061362;28;20536;-78
2022/10/01 11:28:37;;;;;;;2.77;2.57;;;16.30;99.90;;;;;;5063448;28;20466;-78
2022/10/01 11:31:14;;;;;;;2.93;2.63;;;16.40;99.90;;;;;;5061187;28;20541;-78
2022/10/01 11:33:50;;;;;;;4.03;2.80;;;16.40;99.90;;;;;;5064241;28;20455;-78
2022/10/01 11:36:27;;;;;;;2.73;2.53;;;16.60;99.90;;;;;;5057647;28;20500;-78
2022/10/01 11:38:58;;;;;;;3.37;3.00;;;16.50;99.90;;;;;;5056951;28;20885;-78
2022/10/01 11:41:33;;;;;;;3.63;3.33;;;16.40;99.90;;;;;;5053717;28;20915;-84
2022/10/01 11:44:06;;;;;;;3.83;2.50;;;16.50;99.90;;;;;;5058690;28;20509;-79
2022/10/01 11:46:44;;;;;;;4.97;3.27;;;16.70;99.90;;;;;;5058640;28;20545;-79
2022/10/01 11:49:31;;;;;;;3.43;2.87;;;16.70;99.90;;;;;;5058444;28;20458;-79
2022/10/01 11:52:07;;;;;;;3.27;3.03;;;16.40;99.90;;;;;;5059508;28;20551;-79
2022/10/01 11:54:39;;;;;;;4.93;3.37;;;16.30;99.90;;;;;;5047120;28;20460;-80
2022/10/01 12:00:05;;;;;;;3.30;3.10;;;16.20;99.90;;;;;;5056688;28;20540;-78
2022/10/01 12:02:39;;;;;;;2.90;2.70;;;16.20;99.90;;;;;;5054685;28;20488;-78
2022/10/01 12:05:12;;;;;;;4.77;3.20;;;16.30;99.90;;;;;;5057305;28;20576;-78
2022/10/01 12:07:44;;;;;;;3.20;3.00;;;16.30;99.90;;;;;;5050985;28;21222;-77
2022/10/01 12:10:21;;;;;;;4.67;4.37;;;16.30;99.90;;;;;;5052712;28;20518;-77
2022/10/01 12:12:54;;;;;;;2.77;2.57;;;16.20;99.90;;;;;;5058126;28;20458;-77
2022/10/01 12:15:27;;;;;;;3.23;2.93;;;16.20;99.90;;;;;;5061456;28;20442;-78
2022/10/01 12:18:04;;;;;;;4.10;3.87;;;16.20;99.90;;;;;;5057450;28;21095;-77
2022/10/01 12:20:36;;;;;;;3.93;3.57;;;16.20;99.90;;;;;;5060870;28;20497;-77
2022/10/01 12:23:05;;;;;;;4.13;3.90;;;16.40;99.90;;;;;;5055770;28;20483;-78
2022/10/01 12:25:39;;;;;;;3.80;3.50;;;16.40;99.90;;;;;;5059940;28;20515;-78
2022/10/01 12:28:12;;;;;;;3.83;3.43;;;16.50;99.90;;;;;;5053884;28;20478;-78
2022/10/01 12:30:46;;;;;;;2.80;2.60;;;16.50;99.90;;;;;;5056804;28;20488;-78
2022/10/01 12:33:40;;;;;;;4.07;3.80;;;16.40;99.90;;;;;;5061925;28;20479;-78
2022/10/01 12:36:17;;;;;;;3.47;3.20;;;16.50;99.90;;;;;;5056049;28;20534;-77
2022/10/01 12:38:55;;;;;;;4.90;3.80;;;16.60;99.90;;;;;;5054262;28;20495;-77
2022/10/01 12:41:38;;;;;;;4.20;3.90;;;16.90;99.90;;;;;;5052672;28;20539;-77
2022/10/01 12:44:22;;;;;;;4.63;4.33;;;17.00;99.90;;;;;;5054516;28;22312;-77
2022/10/01 12:47:00;;;;;;;3.87;3.67;;;16.90;99.90;;;;;;5059335;28;20471;-77
2022/10/01 12:49:37;;;;;;;6.90;3.80;;;16.80;99.90;;;;;;5062462;28;20454;-78
2022/10/01 12:52:11;;;;;;;4.33;4.00;;;16.70;99.90;;;;;;5060773;28;20952;-77
2022/10/01 12:55:06;;;;;;;4.10;3.80;;;16.50;99.90;;;;;;5053316;28;20457;-78
2022/10/01 12:57:45;;;;;;;6.53;3.37;;;16.40;99.90;;;;;;5054172;28;20575;-78
2022/10/01 13:00:24;;;;;;;4.13;3.63;;;16.30;99.90;;;;;;5061923;28;20857;-77
2022/10/01 13:03:28;;;;;;;5.93;4.30;;;16.20;99.90;;;;;;5052208;28;20458;-78
2022/10/01 13:06:10;;;;;;;3.77;3.37;;;16.30;99.90;;;;;;5056030;28;20579;-78
2022/10/01 13:08:47;;;;;;;3.60;3.40;;;16.50;99.90;;;;;;5053351;28;20468;-79
2022/10/01 13:11:26;;;;;;;3.50;3.20;;;16.40;99.90;;;;;;5062595;28;20506;-77